Axtell, TX

3:03 PM CDT on July 29, 2015 (GMT -0500)
Tstc Waco | | Change Station
CLOSE
Current Station
Airport
Location: TSTC Waco Airport,
Elevation: 469 ft
Nearby Weather Stations

Elev 469 ft 31.65 °N, 97.07 °W | Updated 8 minutes ago

Clear
Clear
99 °F
Feels Like 98 °F
N
9
Wind Variable Wind from South

Today
High -- | Low -- °F
--% Chance of Precip.
Yesterday
High -- | Low -- °F
Precip. -- in
6:41 AM 8:26 PM
Waxing Gibbous, 96% visible
Pressure 30.02 in
Visibility 10.0 miles
Clouds Clear
Heat Index 98 °F
Dew Point 59 °F
Humidity 27%
Rainfall 0.00 in
Snow Depth Not available.
UV 11 out of 12
Pollen 5.80 out of 12
Air Quality Not available.
Flu Activity Not available.
METAR KCNW 291955Z 17008KT 10SM SKC 37/15 A3002

More Conditions Fewer Conditions

Pressure 30.02 in
Visibility 10.0 miles
Clouds Clear
Heat Index 98 °F
Dew Point 59 °F
Humidity 27%
Rainfall 0.00 in
Snow Depth Not available.
UV 11 out of 12
Pollen 5.80 out of 12
Air Quality Not available.
Flu Activity Not available.
METAR KCNW 291955Z 17008KT 10SM SKC 37/15 A3002

More Conditions Fewer Conditions

10-Day Weather Forecast

×

Almanac

Astronomy

Jul. 29, 2015 Rise Set
Actual Time
Civil Twilight
Nautical Twilight
Astronomical Twilight
Moon
Length of Visible Light
Length of Day
Tomorrow will be .
, % of the Moon is Illuminated

Today's Extremes

State Highs State Lows

Community

WunderPhotos

Upload Photos

1,842,157 photos uploaded!

WunderBlogs® & News

Nearby

Air Quality

  Air Quality AQ Index Pollutant
Not available.

Snow Depth

Station Depth Elevation

Earthquake Activity

City Distance Mag. Time & Date
Minimum magnitude displayed is 2.5.

Coastal Water Temperatures

Place Temperature

Stations

Nearby Weather Stations

Station Location Temp. Windchill Dew Point Humidity Wind Precip. Elev Updated Type